createdAt,value
2023-04-12T00:02:07.647Z,10.06
2023-04-12T00:04:36.082Z,10.04
2023-04-12T00:07:03.388Z,10.04
2023-04-12T00:09:30.586Z,10.00
2023-04-12T00:12:00.500Z,9.94
2023-04-12T00:14:27.903Z,9.91
2023-04-12T00:16:55.645Z,9.82
2023-04-12T00:19:25.863Z,9.72
2023-04-12T00:21:53.136Z,9.66
2023-04-12T00:24:20.349Z,9.58
2023-04-12T00:26:47.751Z,9.51
2023-04-12T00:29:16.133Z,9.49
2023-04-12T00:31:43.357Z,9.46
2023-04-12T00:34:10.602Z,9.43
2023-04-12T00:36:37.805Z,9.39
2023-04-12T00:39:05.201Z,9.30
2023-04-12T00:41:32.371Z,9.31
2023-04-12T00:43:59.905Z,9.27
2023-04-12T00:46:29.522Z,9.21
2023-04-12T00:48:57.858Z,9.11
2023-04-12T00:51:25.919Z,9.12
2023-04-12T00:53:59.714Z,9.07
2023-04-12T00:56:28.596Z,9.03
2023-04-12T00:58:57.104Z,8.97
2023-04-12T01:01:24.433Z,8.93
2023-04-12T01:03:53.741Z,8.96
2023-04-12T01:06:42.817Z,8.90
2023-04-12T01:09:44.741Z,8.87
2023-04-12T01:12:38.842Z,8.87
2023-04-12T01:15:14.241Z,8.83
2023-04-12T01:18:02.893Z,8.76
2023-04-12T01:20:36.160Z,8.70
2023-04-12T01:23:22.298Z,8.76
2023-04-12T01:26:28.299Z,8.77
2023-04-12T01:28:57.029Z,8.80
2023-04-12T01:31:26.251Z,8.81
2023-04-12T01:33:57.305Z,8.84
2023-04-12T01:36:27.534Z,8.79
2023-04-12T01:38:55.712Z,8.77
2023-04-12T01:41:23.130Z,8.73
2023-04-12T01:43:50.673Z,8.72
2023-04-12T01:46:22.071Z,8.73
2023-04-12T01:48:51.238Z,8.70
2023-04-12T01:51:51.098Z,8.69
2023-04-12T01:54:34.526Z,8.70
2023-04-12T01:57:04.962Z,8.66
2023-04-12T01:59:39.306Z,8.63
2023-04-12T02:02:08.262Z,8.60
2023-04-12T02:04:36.453Z,8.62
2023-04-12T02:07:03.952Z,8.60
2023-04-12T02:09:36.127Z,8.63
2023-04-12T02:12:06.545Z,8.60
2023-04-12T02:14:33.844Z,8.60
2023-04-12T02:17:02.527Z,8.57
2023-04-12T02:19:30.425Z,8.59
2023-04-12T02:21:57.792Z,8.59
2023-04-12T02:24:25.052Z,8.56
2023-04-12T02:26:52.326Z,8.57
2023-04-12T02:29:19.641Z,8.57
2023-04-12T02:31:48.596Z,8.60
2023-04-12T02:34:18.280Z,8.59
2023-04-12T02:36:51.196Z,8.60
2023-04-12T02:39:18.919Z,8.60
2023-04-12T02:41:48.425Z,8.60
2023-04-12T02:44:16.620Z,8.57
2023-04-12T02:46:51.538Z,8.56
2023-04-12T02:49:18.944Z,8.56
2023-04-12T02:51:47.899Z,8.53
2023-04-12T02:54:17.018Z,8.52
2023-04-12T02:56:54.000Z,8.49
2023-04-12T02:59:36.892Z,8.49
2023-04-12T03:02:16.866Z,8.49
2023-04-12T03:04:46.900Z,8.49
2023-04-12T03:07:19.641Z,8.55
2023-04-12T03:09:51.052Z,8.52
2023-04-12T03:12:20.694Z,8.53
2023-04-12T03:15:01.288Z,8.53
2023-04-12T03:17:29.010Z,8.55
2023-04-12T03:19:58.218Z,8.53
2023-04-12T03:22:26.620Z,8.50
2023-04-12T03:24:58.796Z,8.55
2023-04-12T03:27:26.121Z,8.53
2023-04-12T03:29:53.851Z,8.55
2023-04-12T03:32:24.548Z,8.52
2023-04-12T03:34:52.064Z,8.46
2023-04-12T03:37:25.070Z,8.41
2023-04-12T03:39:54.974Z,8.31
2023-04-12T03:42:33.241Z,8.28
2023-04-12T03:45:12.313Z,8.25
2023-04-12T03:47:43.196Z,8.28
2023-04-12T03:50:12.605Z,8.26
2023-04-12T03:52:45.615Z,8.25
2023-04-12T03:55:13.706Z,8.20
2023-04-12T03:57:42.077Z,8.21
2023-04-12T04:00:10.802Z,8.16
2023-04-12T04:02:47.433Z,8.16
2023-04-12T04:05:16.618Z,8.21
2023-04-12T04:07:45.933Z,8.21
2023-04-12T04:10:15.404Z,8.22
2023-04-12T04:12:44.601Z,8.25
2023-04-12T04:15:14.894Z,8.26
2023-04-12T04:17:43.099Z,8.28
2023-04-12T04:20:13.459Z,8.25
2023-04-12T04:22:42.975Z,8.26
2023-04-12T04:25:10.627Z,8.25
2023-04-12T04:27:44.904Z,8.26
2023-04-12T04:30:15.286Z,8.31
2023-04-12T04:32:46.084Z,8.35
2023-04-12T04:35:16.905Z,8.38
2023-04-12T04:38:15.742Z,8.42
2023-04-12T04:40:44.112Z,8.36
2023-04-12T04:43:13.998Z,8.35
2023-04-12T04:45:43.412Z,8.34
2023-04-12T04:48:11.122Z,8.49
2023-04-12T04:50:38.501Z,9.93
2023-04-12T04:53:05.836Z,12.12
2023-04-12T04:55:34.022Z,13.98
2023-04-12T04:58:01.546Z,15.61
2023-04-12T05:00:29.010Z,17.17
2023-04-12T05:02:58.700Z,18.78
2023-04-12T05:05:29.450Z,19.67
2023-04-12T05:08:06.604Z,19.83
2023-04-12T05:10:35.765Z,20.41
2023-04-12T05:13:03.770Z,20.86
2023-04-12T05:15:31.965Z,21.35
2023-04-12T05:18:00.285Z,21.38
2023-04-12T05:20:28.422Z,21.42
2023-04-12T05:22:55.749Z,21.63
2023-04-12T05:25:23.149Z,21.93
2023-04-12T05:27:57.197Z,22.25
2023-04-12T05:30:25.542Z,22.06
2023-04-12T05:32:53.089Z,21.81
2023-04-12T05:35:21.366Z,21.79
2023-04-12T05:37:51.566Z,21.68
2023-04-12T05:40:18.978Z,22.48
2023-04-12T05:42:49.758Z,22.78
2023-04-12T05:45:17.381Z,22.84
2023-04-12T05:47:44.719Z,23.36
2023-04-12T05:50:12.571Z,23.02
2023-04-12T05:52:40.062Z,22.73
2023-04-12T05:55:09.320Z,23.27
2023-04-12T05:57:41.104Z,23.37
2023-04-12T06:00:14.324Z,22.88
2023-04-12T06:02:46.114Z,22.47
2023-04-12T06:05:15.245Z,22.51
2023-04-12T06:07:47.084Z,22.76
2023-04-12T06:10:18.961Z,22.64
2023-04-12T06:12:53.452Z,23.15
2023-04-12T06:15:21.135Z,22.89
2023-04-12T06:17:53.671Z,22.45
2023-04-12T06:20:21.012Z,22.58
2023-04-12T06:22:48.807Z,22.57
2023-04-12T06:25:17.910Z,23.20
2023-04-12T06:27:47.205Z,23.71
2023-04-12T06:30:16.794Z,23.47
2023-04-12T06:32:44.438Z,24.32
2023-04-12T06:35:11.965Z,24.02
2023-04-12T06:37:39.691Z,24.92
2023-04-12T06:40:07.923Z,24.32
2023-04-12T06:42:35.380Z,24.15
2023-04-12T06:45:03.112Z,24.11
2023-04-12T06:47:30.839Z,23.89
2023-04-12T06:49:58.410Z,23.67
2023-04-12T06:52:26.820Z,23.49
2023-04-12T06:54:56.291Z,24.46
2023-04-12T06:57:23.874Z,24.98
2023-04-12T06:59:51.829Z,24.08
2023-04-12T07:02:19.177Z,22.91
2023-04-12T07:04:47.261Z,23.40
2023-04-12T07:07:14.840Z,23.27
2023-04-12T07:09:43.150Z,23.29
2023-04-12T07:12:10.414Z,23.33
2023-04-12T07:14:37.619Z,22.47
2023-04-12T07:17:04.899Z,23.46
2023-04-12T07:19:32.380Z,24.32
2023-04-12T07:21:59.613Z,23.82
2023-04-12T07:24:26.837Z,24.21
2023-04-12T07:26:55.039Z,23.85
2023-04-12T07:29:22.321Z,23.63
2023-04-12T07:31:49.916Z,23.82
2023-04-12T07:34:17.372Z,23.77
2023-04-12T07:36:45.041Z,24.51
2023-04-12T07:39:12.624Z,24.35
2023-04-12T07:41:42.272Z,24.23
2023-04-12T07:44:09.487Z,24.28
2023-04-12T07:46:36.809Z,24.32
2023-04-12T07:49:04.014Z,24.04
2023-04-12T07:51:31.344Z,22.52
2023-04-12T07:53:58.731Z,23.50
2023-04-12T07:56:26.352Z,24.39
2023-04-12T07:58:53.575Z,25.11
2023-04-12T08:01:20.812Z,24.64
2023-04-12T08:03:48.474Z,23.93
2023-04-12T08:06:15.909Z,23.67
2023-04-12T08:08:43.422Z,23.42
2023-04-12T08:11:10.945Z,23.51
2023-04-12T08:13:38.110Z,23.39
2023-04-12T08:16:06.696Z,24.25
2023-04-12T08:18:33.882Z,24.84
2023-04-12T08:21:01.356Z,24.46
2023-04-12T08:23:28.718Z,24.22
2023-04-12T08:26:03.709Z,24.22
2023-04-12T08:28:31.401Z,24.46
2023-04-12T08:30:59.575Z,24.59
2023-04-12T08:33:27.548Z,23.63
2023-04-12T08:35:55.229Z,22.16
2023-04-12T08:38:30.769Z,21.24
2023-04-12T08:41:09.040Z,20.87
2023-04-12T08:43:38.040Z,20.15
2023-04-12T08:46:05.591Z,19.59
2023-04-12T08:48:33.211Z,19.57
2023-04-12T08:51:00.916Z,19.62
2023-04-12T08:53:28.309Z,19.40
2023-04-12T08:55:55.496Z,19.22
2023-04-12T08:58:23.747Z,19.32
2023-04-12T09:00:51.351Z,19.47
2023-04-12T09:03:18.841Z,20.03
2023-04-12T09:05:46.248Z,20.18
2023-04-12T09:08:13.536Z,19.42
2023-04-12T09:10:42.693Z,18.72
2023-04-12T09:13:10.041Z,18.75
2023-04-12T09:15:51.241Z,19.36
2023-04-12T09:18:18.758Z,19.09
2023-04-12T09:20:45.946Z,18.89
2023-04-12T09:23:26.530Z,19.02
2023-04-12T09:25:53.904Z,19.52
2023-04-12T09:28:22.641Z,18.53
2023-04-12T09:30:51.861Z,18.74
2023-04-12T09:33:20.787Z,18.92
2023-04-12T09:35:49.153Z,18.65
2023-04-12T09:38:16.530Z,18.64
2023-04-12T09:40:43.957Z,19.02
2023-04-12T09:43:11.476Z,19.60
2023-04-12T09:45:39.081Z,19.50
2023-04-12T09:48:07.492Z,20.36
2023-04-12T09:50:34.951Z,20.52
2023-04-12T09:53:04.316Z,18.61
2023-04-12T09:55:32.682Z,19.02
2023-04-12T09:58:04.247Z,19.77
2023-04-12T10:00:34.339Z,20.60
2023-04-12T10:03:03.040Z,19.53
2023-04-12T10:05:31.163Z,18.05
2023-04-12T10:08:01.288Z,18.14
2023-04-12T10:10:30.888Z,17.96
2023-04-12T10:12:59.274Z,18.19
2023-04-12T10:15:27.365Z,19.16
2023-04-12T10:18:03.020Z,19.07
2023-04-12T10:20:30.647Z,19.26
2023-04-12T10:22:59.716Z,19.53
2023-04-12T10:25:31.129Z,19.57
2023-04-12T10:28:13.797Z,19.80
2023-04-12T10:30:41.112Z,19.80
2023-04-12T10:33:13.699Z,19.84
2023-04-12T10:35:53.532Z,19.39
2023-04-12T10:38:21.820Z,19.15
2023-04-12T10:41:09.889Z,19.39
2023-04-12T10:43:37.268Z,18.84
2023-04-12T10:46:06.614Z,18.84
2023-04-12T10:48:54.248Z,18.84
2023-04-12T10:51:26.744Z,19.11
2023-04-12T10:54:07.754Z,19.50
2023-04-12T10:56:37.778Z,19.56
2023-04-12T10:59:15.056Z,18.99
2023-04-12T11:02:13.591Z,19.40
2023-04-12T11:05:10.903Z,19.73
2023-04-12T11:08:06.980Z,19.47
2023-04-12T11:10:46.865Z,19.37
2023-04-12T11:13:23.116Z,19.12
2023-04-12T11:15:56.506Z,18.80
2023-04-12T11:18:25.854Z,18.68
2023-04-12T11:20:53.560Z,18.50
2023-04-12T11:23:22.095Z,18.89
2023-04-12T11:25:53.643Z,18.91
2023-04-12T11:28:28.095Z,18.88
2023-04-12T11:30:56.677Z,18.81
2023-04-12T11:33:38.008Z,18.92
2023-04-12T11:36:12.284Z,18.97
2023-04-12T11:38:40.334Z,19.26
2023-04-12T11:41:09.194Z,19.01
2023-04-12T11:43:38.711Z,19.12
2023-04-12T11:46:06.653Z,18.92
2023-04-12T11:48:34.053Z,18.63
2023-04-12T11:51:10.929Z,18.49
2023-04-12T11:53:39.120Z,18.30
2023-04-12T11:56:06.891Z,18.32
2023-04-12T11:58:34.105Z,18.41
2023-04-12T12:01:02.287Z,18.59
2023-04-12T12:03:30.193Z,18.56
2023-04-12T12:05:58.262Z,18.57
2023-04-12T12:08:26.357Z,18.13
2023-04-12T12:11:07.282Z,18.20
2023-04-12T12:14:04.725Z,18.17
2023-04-12T12:16:32.267Z,18.29
2023-04-12T12:19:04.282Z,18.36
2023-04-12T12:21:31.661Z,18.36
2023-04-12T12:23:58.980Z,18.43
2023-04-12T12:26:28.286Z,18.30
2023-04-12T12:28:57.375Z,18.51
2023-04-12T12:31:28.451Z,18.75
2023-04-12T12:33:57.936Z,18.65
2023-04-12T12:36:33.721Z,18.70
2023-04-12T12:39:07.744Z,18.77
2023-04-12T12:41:35.409Z,17.95
2023-04-12T12:44:03.193Z,17.48
2023-04-12T12:46:44.734Z,17.31
2023-04-12T12:49:18.756Z,17.67
2023-04-12T12:51:46.827Z,17.99
2023-04-12T12:54:19.814Z,17.92
2023-04-12T12:56:52.621Z,17.81
2023-04-12T12:59:20.001Z,17.85
2023-04-12T13:01:47.432Z,17.78
2023-04-12T13:04:14.795Z,17.71
2023-04-12T13:06:42.197Z,17.68
2023-04-12T13:09:09.465Z,17.60
2023-04-12T13:11:37.029Z,17.55
2023-04-12T13:14:04.236Z,17.45
2023-04-12T13:16:31.706Z,17.20
2023-04-12T13:18:59.101Z,17.02
2023-04-12T13:21:27.275Z,16.86
2023-04-12T13:23:54.519Z,16.86
2023-04-12T13:26:22.124Z,17.16
2023-04-12T13:28:49.266Z,17.38
2023-04-12T13:31:16.692Z,17.24
2023-04-12T13:33:43.886Z,17.09
2023-04-12T13:36:11.192Z,16.95
2023-04-12T13:38:38.583Z,16.89
2023-04-12T13:41:05.801Z,16.90
2023-04-12T13:43:33.001Z,17.22
2023-04-12T13:46:00.390Z,17.34
2023-04-12T13:48:27.605Z,17.22
2023-04-12T13:50:55.926Z,17.22
2023-04-12T13:53:23.185Z,17.34
2023-04-12T13:55:50.490Z,17.24
2023-04-12T13:58:18.950Z,17.09
2023-04-12T14:00:46.224Z,16.92
2023-04-12T14:03:13.657Z,16.78
2023-04-12T14:05:41.002Z,16.62
2023-04-12T14:08:08.138Z,16.68
2023-04-12T14:10:35.327Z,16.83
2023-04-12T14:13:02.494Z,16.93
2023-04-12T14:15:29.685Z,16.93
2023-04-12T14:17:57.072Z,17.05
2023-04-12T14:20:24.640Z,16.88
2023-04-12T14:22:51.866Z,16.90
2023-04-12T14:25:19.219Z,17.07
2023-04-12T14:27:46.380Z,17.31
2023-04-12T14:30:13.889Z,17.30
2023-04-12T14:32:41.321Z,17.31
2023-04-12T14:35:09.509Z,17.44
2023-04-12T14:37:36.755Z,17.34
2023-04-12T14:40:06.600Z,17.30
2023-04-12T14:42:33.904Z,17.30
2023-04-12T14:45:01.691Z,17.43
2023-04-12T14:47:28.892Z,17.43
2023-04-12T14:49:56.257Z,17.34
2023-04-12T14:52:23.402Z,17.19
2023-04-12T14:54:50.634Z,17.02
2023-04-12T14:57:18.269Z,16.92
2023-04-12T14:59:45.694Z,17.07
2023-04-12T15:02:13.071Z,17.12
2023-04-12T15:04:40.363Z,17.22
2023-04-12T15:07:07.661Z,17.40
2023-04-12T15:09:35.084Z,17.33
2023-04-12T15:12:02.376Z,17.15
2023-04-12T15:14:30.087Z,17.16
2023-04-12T15:16:57.857Z,17.06
2023-04-12T15:19:25.151Z,16.86
2023-04-12T15:21:55.176Z,16.55
2023-04-12T15:24:22.992Z,16.44
2023-04-12T15:26:52.497Z,16.37
2023-04-12T15:29:21.346Z,16.38
2023-04-12T15:31:48.862Z,16.48
2023-04-12T15:34:16.331Z,16.62
2023-04-12T15:36:44.389Z,16.59
2023-04-12T15:39:13.492Z,16.45
2023-04-12T15:41:42.238Z,16.22
2023-04-12T15:44:13.132Z,16.00
2023-04-12T15:46:41.884Z,15.78
2023-04-12T15:49:10.383Z,15.66
2023-04-12T15:51:38.420Z,15.62
2023-04-12T15:54:06.318Z,15.56
2023-04-12T15:56:35.191Z,15.56
2023-04-12T15:59:02.958Z,15.59
2023-04-12T16:01:30.308Z,15.59
2023-04-12T16:03:58.059Z,15.59
2023-04-12T16:06:25.582Z,15.44
2023-04-12T16:08:54.699Z,15.28
2023-04-12T16:11:24.156Z,15.18
2023-04-12T16:13:52.727Z,15.04
2023-04-12T16:16:23.525Z,14.87
2023-04-12T16:18:52.827Z,14.72
2023-04-12T16:21:22.335Z,14.59
2023-04-12T16:23:50.889Z,14.48
2023-04-12T16:26:22.103Z,14.30
2023-04-12T16:28:52.953Z,14.15
2023-04-12T16:31:21.341Z,13.95
2023-04-12T16:33:49.876Z,13.81
2023-04-12T16:36:17.693Z,13.66
2023-04-12T16:38:49.405Z,13.47
2023-04-12T16:41:18.696Z,13.32
2023-04-12T16:43:46.200Z,13.22
2023-04-12T16:46:13.962Z,13.11
2023-04-12T16:48:42.185Z,12.96
2023-04-12T16:51:09.560Z,12.88
2023-04-12T16:53:37.078Z,12.81
2023-04-12T16:56:04.752Z,12.69
2023-04-12T16:58:33.164Z,12.60
2023-04-12T17:01:00.930Z,12.50
2023-04-12T17:03:28.837Z,12.41
2023-04-12T17:05:56.229Z,12.27
2023-04-12T17:08:23.741Z,12.15
2023-04-12T17:10:51.184Z,11.99
2023-04-12T17:13:20.345Z,11.92
2023-04-12T17:15:48.401Z,11.78
2023-04-12T17:18:16.165Z,11.67
2023-04-12T17:20:44.120Z,11.52
2023-04-12T17:23:11.840Z,11.34
2023-04-12T17:25:39.664Z,11.26
2023-04-12T17:28:08.556Z,11.13
2023-04-12T17:30:36.123Z,10.99
2023-04-12T17:33:03.833Z,10.82
2023-04-12T17:35:31.312Z,10.66
2023-04-12T17:37:58.685Z,10.55
2023-04-12T17:40:26.161Z,10.44
2023-04-12T17:42:53.432Z,10.31
2023-04-12T17:45:21.827Z,10.20
2023-04-12T17:47:49.488Z,10.10
2023-04-12T17:50:17.089Z,10.03
2023-04-12T17:52:44.448Z,9.96
2023-04-12T17:55:12.821Z,9.93
2023-04-12T17:57:40.783Z,9.93
2023-04-12T18:00:11.550Z,9.90
2023-04-12T18:02:43.834Z,9.86
2023-04-12T18:05:11.877Z,9.82
2023-04-12T18:07:42.679Z,9.78
2023-04-12T18:10:12.612Z,9.75
2023-04-12T18:12:40.944Z,9.69
2023-04-12T18:15:08.949Z,9.63
2023-04-12T18:17:36.487Z,9.63
2023-04-12T18:20:09.798Z,9.62
2023-04-12T18:22:38.162Z,9.59
2023-04-12T18:25:06.974Z,9.56
2023-04-12T18:27:34.409Z,9.55
2023-04-12T18:30:03.250Z,9.52
2023-04-12T18:32:31.043Z,9.49
2023-04-12T18:34:58.403Z,9.48
2023-04-12T18:37:25.725Z,9.38
2023-04-12T18:39:53.474Z,9.36
2023-04-12T18:42:21.058Z,9.25
2023-04-12T18:44:48.309Z,9.22
2023-04-12T18:47:15.601Z,9.17
2023-04-12T18:49:43.233Z,9.17
2023-04-12T18:52:10.633Z,9.12
2023-04-12T18:54:40.731Z,9.10
2023-04-12T18:57:08.449Z,9.10
2023-04-12T18:59:36.029Z,9.05
2023-04-12T19:02:03.588Z,9.07
2023-04-12T19:04:32.246Z,9.04
2023-04-12T19:07:01.953Z,9.03
2023-04-12T19:09:29.258Z,9.01
2023-04-12T19:11:56.983Z,9.03
2023-04-12T19:14:25.257Z,9.00
2023-04-12T19:16:53.045Z,8.94
2023-04-12T19:19:20.899Z,8.90
2023-04-12T19:21:49.253Z,8.84
2023-04-12T19:24:16.576Z,8.83
2023-04-12T19:26:47.252Z,8.79
2023-04-12T19:29:18.816Z,8.72
2023-04-12T19:31:49.712Z,8.66
2023-04-12T19:34:18.085Z,8.64
2023-04-12T19:36:45.783Z,8.67
2023-04-12T19:39:13.352Z,8.69
2023-04-12T19:41:40.742Z,8.67
2023-04-12T19:44:08.043Z,8.64
2023-04-12T19:46:39.047Z,8.66
2023-04-12T19:49:06.576Z,8.63
2023-04-12T19:51:34.698Z,8.63
2023-04-12T19:54:02.925Z,8.60
2023-04-12T19:56:31.988Z,8.57
2023-04-12T19:58:59.955Z,8.50
2023-04-12T20:01:27.755Z,8.45
2023-04-12T20:03:55.041Z,8.38
2023-04-12T20:06:22.524Z,8.32
2023-04-12T20:08:50.286Z,8.26
2023-04-12T20:11:17.569Z,8.24
2023-04-12T20:13:44.823Z,8.15
2023-04-12T20:16:12.353Z,8.08
2023-04-12T20:18:40.735Z,8.04
2023-04-12T20:21:10.086Z,7.98
2023-04-12T20:23:37.358Z,7.94
2023-04-12T20:26:05.613Z,7.97
2023-04-12T20:28:33.009Z,7.95
2023-04-12T20:31:00.810Z,7.94
2023-04-12T20:33:28.085Z,7.97
2023-04-12T20:35:55.462Z,7.93
2023-04-12T20:38:23.195Z,7.95
2023-04-12T20:40:51.375Z,7.95
2023-04-12T20:43:18.671Z,7.94
2023-04-12T20:45:47.078Z,7.94
2023-04-12T20:48:14.439Z,7.93
2023-04-12T20:50:42.345Z,7.87
2023-04-12T20:53:15.208Z,7.86
2023-04-12T20:55:42.900Z,7.80
2023-04-12T20:58:14.392Z,7.78
2023-04-12T21:00:41.757Z,7.73
2023-04-12T21:05:56.317Z,7.57
2023-04-12T21:08:23.621Z,7.56
2023-04-12T21:10:50.940Z,7.52
2023-04-12T21:13:21.823Z,7.49
2023-04-12T21:15:50.310Z,7.46
2023-04-12T21:18:20.347Z,7.45
2023-04-12T21:20:48.541Z,7.43
2023-04-12T21:23:17.137Z,7.39
2023-04-12T21:25:46.796Z,7.38
2023-04-12T21:28:14.935Z,7.33
2023-04-12T21:30:44.718Z,7.33
2023-04-12T21:33:12.804Z,7.32
2023-04-12T21:35:40.327Z,7.30
2023-04-12T21:38:07.571Z,7.30
2023-04-12T21:40:34.809Z,7.29
2023-04-12T21:43:02.086Z,7.23
2023-04-12T21:45:29.511Z,7.22
2023-04-12T21:47:56.904Z,7.19
2023-04-12T21:50:24.257Z,7.15
2023-04-12T21:52:51.618Z,7.14
2023-04-12T21:55:19.120Z,7.09
2023-04-12T21:57:46.443Z,7.07
2023-04-12T22:00:14.080Z,7.01
2023-04-12T22:02:41.635Z,7.01
2023-04-12T22:05:09.268Z,6.95
2023-04-12T22:07:40.980Z,6.95
2023-04-12T22:10:12.177Z,6.92
2023-04-12T22:12:39.913Z,6.91
2023-04-12T22:15:08.623Z,6.91
2023-04-12T22:17:36.208Z,6.88
2023-04-12T22:20:07.612Z,6.83
2023-04-12T22:22:37.417Z,6.77
2023-04-12T22:25:06.838Z,6.70
2023-04-12T22:27:34.157Z,6.64
2023-04-12T22:30:01.388Z,6.56
2023-04-12T22:32:28.747Z,6.43
2023-04-12T22:35:08.284Z,6.37
2023-04-12T22:37:41.340Z,6.32
2023-04-12T22:40:13.503Z,6.28
2023-04-12T22:42:47.818Z,6.22
2023-04-12T22:45:17.633Z,6.21
2023-04-12T22:47:45.670Z,6.15
2023-04-12T22:50:13.349Z,6.15
2023-04-12T22:52:40.848Z,6.05
2023-04-12T22:55:09.427Z,6.01
2023-04-12T22:57:37.117Z,5.92
2023-04-12T23:00:08.014Z,5.88
2023-04-12T23:02:37.652Z,5.81
2023-04-12T23:05:06.349Z,5.77
2023-04-12T23:07:33.851Z,5.77
2023-04-12T23:10:02.064Z,5.67
2023-04-12T23:12:29.342Z,5.61
2023-04-12T23:14:56.883Z,5.60
2023-04-12T23:17:24.374Z,5.53
2023-04-12T23:19:51.830Z,5.53
2023-04-12T23:22:56.085Z,5.50
2023-04-12T23:25:38.033Z,5.53
2023-04-12T23:28:13.553Z,5.55
2023-04-12T23:30:48.993Z,5.53
2023-04-12T23:33:18.547Z,5.53
2023-04-12T23:35:52.242Z,5.57
2023-04-12T23:38:33.572Z,5.61
2023-04-12T23:41:04.144Z,5.64
2023-04-12T23:43:32.762Z,5.60
2023-04-12T23:46:01.439Z,5.57
2023-04-12T23:48:29.530Z,5.54
2023-04-12T23:50:56.892Z,5.50
2023-04-12T23:53:24.333Z,5.46
2023-04-12T23:55:53.793Z,5.44
2023-04-12T23:58:21.707Z,5.43
